sensor_id;sensor_type;location;lat;lon;timestamp;P1;durP1;ratioP1;P2;durP2;ratioP2
75820;SDS011;64454;51.984;9.838;2023-04-15T00:02:14;5.30;;;3.92;;
75820;SDS011;64454;51.984;9.838;2023-04-15T00:04:43;5.45;;;3.90;;
75820;SDS011;64454;51.984;9.838;2023-04-15T00:07:10;5.03;;;4.50;;
75820;SDS011;64454;51.984;9.838;2023-04-15T00:09:37;4.90;;;4.00;;
75820;SDS011;64454;51.984;9.838;2023-04-15T00:12:04;4.63;;;4.10;;
75820;SDS011;64454;51.984;9.838;2023-04-15T00:14:33;4.63;;;4.20;;
75820;SDS011;64454;51.984;9.838;2023-04-15T00:17:01;5.00;;;4.00;;
75820;SDS011;64454;51.984;9.838;2023-04-15T00:19:28;4.70;;;4.00;;
75820;SDS011;64454;51.984;9.838;2023-04-15T00:21:55;5.53;;;4.93;;
75820;SDS011;64454;51.984;9.838;2023-04-15T00:24:22;5.65;;;4.70;;
75820;SDS011;64454;51.984;9.838;2023-04-15T00:26:49;5.68;;;4.50;;
75820;SDS011;64454;51.984;9.838;2023-04-15T00:29:16;4.68;;;4.18;;
75820;SDS011;64454;51.984;9.838;2023-04-15T00:31:47;4.80;;;4.00;;
75820;SDS011;64454;51.984;9.838;2023-04-15T00:34:14;5.50;;;4.72;;
75820;SDS011;64454;51.984;9.838;2023-04-15T00:36:43;6.97;;;5.30;;
75820;SDS011;64454;51.984;9.838;2023-04-15T00:39:10;9.30;;;4.78;;
75820;SDS011;64454;51.984;9.838;2023-04-15T00:41:37;7.73;;;4.30;;
75820;SDS011;64454;51.984;9.838;2023-04-15T00:44:04;7.03;;;5.10;;
75820;SDS011;64454;51.984;9.838;2023-04-15T00:46:32;7.20;;;5.63;;
75820;SDS011;64454;51.984;9.838;2023-04-15T00:49:04;8.55;;;6.70;;
75820;SDS011;64454;51.984;9.838;2023-04-15T00:51:32;9.20;;;7.00;;
75820;SDS011;64454;51.984;9.838;2023-04-15T00:54:00;9.50;;;7.80;;
75820;SDS011;64454;51.984;9.838;2023-04-15T00:56:28;10.07;;;7.50;;
75820;SDS011;64454;51.984;9.838;2023-04-15T00:58:56;8.98;;;8.00;;
75820;SDS011;64454;51.984;9.838;2023-04-15T01:01:24;11.07;;;8.05;;
75820;SDS011;64454;51.984;9.838;2023-04-15T01:03:53;9.85;;;8.10;;
75820;SDS011;64454;51.984;9.838;2023-04-15T01:06:24;10.77;;;8.27;;
75820;SDS011;64454;51.984;9.838;2023-04-15T01:08:52;10.27;;;8.60;;
75820;SDS011;64454;51.984;9.838;2023-04-15T01:11:19;12.80;;;8.20;;
75820;SDS011;64454;51.984;9.838;2023-04-15T01:13:46;8.70;;;7.80;;
75820;SDS011;64454;51.984;9.838;2023-04-15T01:16:14;9.47;;;7.50;;
75820;SDS011;64454;51.984;9.838;2023-04-15T01:18:42;11.75;;;8.77;;
75820;SDS011;64454;51.984;9.838;2023-04-15T01:21:09;10.50;;;7.80;;
75820;SDS011;64454;51.984;9.838;2023-04-15T01:23:37;11.23;;;8.27;;
75820;SDS011;64454;51.984;9.838;2023-04-15T01:26:06;11.13;;;7.97;;
75820;SDS011;64454;51.984;9.838;2023-04-15T01:28:34;9.00;;;7.13;;
75820;SDS011;64454;51.984;9.838;2023-04-15T01:31:05;9.00;;;7.70;;
75820;SDS011;64454;51.984;9.838;2023-04-15T01:33:34;9.20;;;7.80;;
75820;SDS011;64454;51.984;9.838;2023-04-15T01:36:00;9.77;;;7.30;;
75820;SDS011;64454;51.984;9.838;2023-04-15T01:38:29;9.10;;;7.37;;
75820;SDS011;64454;51.984;9.838;2023-04-15T01:40:57;9.38;;;7.93;;
75820;SDS011;64454;51.984;9.838;2023-04-15T01:43:25;10.05;;;7.65;;
75820;SDS011;64454;51.984;9.838;2023-04-15T01:45:53;8.75;;;7.40;;
75820;SDS011;64454;51.984;9.838;2023-04-15T01:48:20;9.60;;;7.50;;
75820;SDS011;64454;51.984;9.838;2023-04-15T01:50:47;10.00;;;7.78;;
75820;SDS011;64454;51.984;9.838;2023-04-15T01:53:14;8.20;;;7.32;;
75820;SDS011;64454;51.984;9.838;2023-04-15T01:55:41;8.63;;;7.22;;
75820;SDS011;64454;51.984;9.838;2023-04-15T01:58:08;9.00;;;8.03;;
75820;SDS011;64454;51.984;9.838;2023-04-15T02:00:36;9.40;;;8.10;;
75820;SDS011;64454;51.984;9.838;2023-04-15T02:03:03;10.52;;;8.20;;
75820;SDS011;64454;51.984;9.838;2023-04-15T02:05:30;8.70;;;7.77;;
75820;SDS011;64454;51.984;9.838;2023-04-15T02:07:57;10.07;;;8.02;;
75820;SDS011;64454;51.984;9.838;2023-04-15T02:10:24;10.45;;;8.32;;
75820;SDS011;64454;51.984;9.838;2023-04-15T02:12:51;12.00;;;9.05;;
75820;SDS011;64454;51.984;9.838;2023-04-15T02:15:19;9.88;;;8.00;;
75820;SDS011;64454;51.984;9.838;2023-04-15T02:17:47;12.02;;;8.93;;
75820;SDS011;64454;51.984;9.838;2023-04-15T02:20:15;10.63;;;8.57;;
75820;SDS011;64454;51.984;9.838;2023-04-15T02:22:42;11.82;;;9.00;;
75820;SDS011;64454;51.984;9.838;2023-04-15T02:25:09;10.02;;;8.60;;
75820;SDS011;64454;51.984;9.838;2023-04-15T02:27:36;11.00;;;8.60;;
75820;SDS011;64454;51.984;9.838;2023-04-15T02:30:03;9.68;;;8.40;;
75820;SDS011;64454;51.984;9.838;2023-04-15T02:32:32;11.80;;;9.18;;
75820;SDS011;64454;51.984;9.838;2023-04-15T02:35:02;10.70;;;8.70;;
75820;SDS011;64454;51.984;9.838;2023-04-15T02:37:29;10.88;;;8.93;;
75820;SDS011;64454;51.984;9.838;2023-04-15T02:40:00;11.20;;;8.70;;
75820;SDS011;64454;51.984;9.838;2023-04-15T02:42:27;10.20;;;8.40;;
75820;SDS011;64454;51.984;9.838;2023-04-15T02:44:55;11.02;;;8.80;;
75820;SDS011;64454;51.984;9.838;2023-04-15T02:47:23;11.43;;;9.00;;
75820;SDS011;64454;51.984;9.838;2023-04-15T02:49:50;10.00;;;8.80;;
75820;SDS011;64454;51.984;9.838;2023-04-15T02:52:18;10.90;;;8.20;;
75820;SDS011;64454;51.984;9.838;2023-04-15T02:54:45;11.43;;;8.88;;
75820;SDS011;64454;51.984;9.838;2023-04-15T02:57:12;10.70;;;8.80;;
75820;SDS011;64454;51.984;9.838;2023-04-15T02:59:39;11.25;;;9.30;;
75820;SDS011;64454;51.984;9.838;2023-04-15T03:02:06;11.00;;;8.55;;
75820;SDS011;64454;51.984;9.838;2023-04-15T03:04:33;12.38;;;9.07;;
75820;SDS011;64454;51.984;9.838;2023-04-15T03:07:00;10.15;;;8.30;;
75820;SDS011;64454;51.984;9.838;2023-04-15T03:09:28;10.55;;;8.30;;
75820;SDS011;64454;51.984;9.838;2023-04-15T03:11:55;11.90;;;8.20;;
75820;SDS011;64454;51.984;9.838;2023-04-15T03:14:22;9.48;;;8.48;;
75820;SDS011;64454;51.984;9.838;2023-04-15T03:16:49;9.93;;;8.40;;
75820;SDS011;64454;51.984;9.838;2023-04-15T03:19:16;10.85;;;8.90;;
75820;SDS011;64454;51.984;9.838;2023-04-15T03:21:45;10.63;;;8.50;;
75820;SDS011;64454;51.984;9.838;2023-04-15T03:24:12;10.75;;;8.48;;
75820;SDS011;64454;51.984;9.838;2023-04-15T03:26:41;10.73;;;8.85;;
75820;SDS011;64454;51.984;9.838;2023-04-15T03:29:08;9.77;;;8.02;;
75820;SDS011;64454;51.984;9.838;2023-04-15T03:31:36;12.30;;;8.45;;
75820;SDS011;64454;51.984;9.838;2023-04-15T03:34:02;12.50;;;9.10;;
75820;SDS011;64454;51.984;9.838;2023-04-15T03:36:30;12.00;;;9.35;;
75820;SDS011;64454;51.984;9.838;2023-04-15T03:38:57;12.00;;;9.80;;
75820;SDS011;64454;51.984;9.838;2023-04-15T03:41:26;11.17;;;9.37;;
75820;SDS011;64454;51.984;9.838;2023-04-15T03:43:54;12.77;;;9.35;;
75820;SDS011;64454;51.984;9.838;2023-04-15T03:46:22;11.63;;;8.90;;
75820;SDS011;64454;51.984;9.838;2023-04-15T03:48:49;12.95;;;9.70;;
75820;SDS011;64454;51.984;9.838;2023-04-15T03:51:16;12.00;;;9.77;;
75820;SDS011;64454;51.984;9.838;2023-04-15T03:53:43;11.85;;;9.63;;
75820;SDS011;64454;51.984;9.838;2023-04-15T03:56:10;14.70;;;10.23;;
75820;SDS011;64454;51.984;9.838;2023-04-15T03:58:37;14.18;;;10.23;;
75820;SDS011;64454;51.984;9.838;2023-04-15T04:01:05;14.63;;;10.40;;
75820;SDS011;64454;51.984;9.838;2023-04-15T04:03:32;13.23;;;9.80;;
75820;SDS011;64454;51.984;9.838;2023-04-15T04:05:59;13.10;;;9.50;;
75820;SDS011;64454;51.984;9.838;2023-04-15T04:08:26;14.20;;;10.15;;
75820;SDS011;64454;51.984;9.838;2023-04-15T04:10:53;13.95;;;10.25;;
75820;SDS011;64454;51.984;9.838;2023-04-15T04:13:20;14.00;;;10.18;;
75820;SDS011;64454;51.984;9.838;2023-04-15T04:15:47;16.17;;;11.30;;
75820;SDS011;64454;51.984;9.838;2023-04-15T04:18:15;15.02;;;10.63;;
75820;SDS011;64454;51.984;9.838;2023-04-15T04:20:42;15.20;;;10.30;;
75820;SDS011;64454;51.984;9.838;2023-04-15T04:23:08;13.68;;;10.68;;
75820;SDS011;64454;51.984;9.838;2023-04-15T04:25:36;13.77;;;10.23;;
75820;SDS011;64454;51.984;9.838;2023-04-15T04:28:03;15.10;;;10.85;;
75820;SDS011;64454;51.984;9.838;2023-04-15T04:30:30;14.63;;;10.35;;
75820;SDS011;64454;51.984;9.838;2023-04-15T04:32:56;13.35;;;10.70;;
75820;SDS011;64454;51.984;9.838;2023-04-15T04:35:25;13.40;;;10.18;;
75820;SDS011;64454;51.984;9.838;2023-04-15T04:37:52;17.92;;;11.10;;
75820;SDS011;64454;51.984;9.838;2023-04-15T04:40:19;16.35;;;10.73;;
75820;SDS011;64454;51.984;9.838;2023-04-15T04:42:46;14.85;;;10.68;;
75820;SDS011;64454;51.984;9.838;2023-04-15T04:45:13;14.90;;;11.30;;
75820;SDS011;64454;51.984;9.838;2023-04-15T04:47:40;14.77;;;10.77;;
75820;SDS011;64454;51.984;9.838;2023-04-15T04:50:07;13.80;;;10.63;;
75820;SDS011;64454;51.984;9.838;2023-04-15T04:52:36;16.20;;;11.30;;
75820;SDS011;64454;51.984;9.838;2023-04-15T04:55:04;16.47;;;10.93;;
75820;SDS011;64454;51.984;9.838;2023-04-15T04:57:32;16.60;;;11.57;;
75820;SDS011;64454;51.984;9.838;2023-04-15T04:59:59;16.42;;;11.73;;
75820;SDS011;64454;51.984;9.838;2023-04-15T05:02:27;15.80;;;10.23;;
75820;SDS011;64454;51.984;9.838;2023-04-15T05:05:13;15.13;;;10.93;;
75820;SDS011;64454;51.984;9.838;2023-04-15T05:08:01;16.45;;;11.90;;
75820;SDS011;64454;51.984;9.838;2023-04-15T05:10:49;17.40;;;11.82;;
75820;SDS011;64454;51.984;9.838;2023-04-15T05:13:36;15.43;;;10.80;;
75820;SDS011;64454;51.984;9.838;2023-04-15T05:16:23;18.80;;;12.50;;
75820;SDS011;64454;51.984;9.838;2023-04-15T05:19:11;17.75;;;11.40;;
75820;SDS011;64454;51.984;9.838;2023-04-15T05:21:38;17.02;;;11.93;;
75820;SDS011;64454;51.984;9.838;2023-04-15T05:24:06;17.90;;;12.30;;
75820;SDS011;64454;51.984;9.838;2023-04-15T05:26:33;17.58;;;12.30;;
75820;SDS011;64454;51.984;9.838;2023-04-15T05:29:01;17.33;;;12.77;;
75820;SDS011;64454;51.984;9.838;2023-04-15T05:31:27;18.08;;;12.80;;
75820;SDS011;64454;51.984;9.838;2023-04-15T05:33:55;21.08;;;13.52;;
75820;SDS011;64454;51.984;9.838;2023-04-15T05:36:24;18.92;;;13.25;;
75820;SDS011;64454;51.984;9.838;2023-04-15T05:38:51;19.95;;;13.63;;
75820;SDS011;64454;51.984;9.838;2023-04-15T05:41:21;18.65;;;12.70;;
75820;SDS011;64454;51.984;9.838;2023-04-15T05:43:48;21.48;;;13.93;;
75820;SDS011;64454;51.984;9.838;2023-04-15T05:46:15;18.55;;;13.77;;
75820;SDS011;64454;51.984;9.838;2023-04-15T05:48:42;19.85;;;13.93;;
75820;SDS011;64454;51.984;9.838;2023-04-15T05:51:09;20.10;;;14.27;;
75820;SDS011;64454;51.984;9.838;2023-04-15T05:53:35;22.70;;;15.57;;
75820;SDS011;64454;51.984;9.838;2023-04-15T05:56:03;22.67;;;15.30;;
75820;SDS011;64454;51.984;9.838;2023-04-15T05:58:31;25.17;;;16.23;;
75820;SDS011;64454;51.984;9.838;2023-04-15T06:00:58;21.27;;;14.98;;
75820;SDS011;64454;51.984;9.838;2023-04-15T06:03:25;25.63;;;15.43;;
75820;SDS011;64454;51.984;9.838;2023-04-15T06:05:52;22.20;;;15.00;;
75820;SDS011;64454;51.984;9.838;2023-04-15T06:08:19;24.33;;;15.80;;
75820;SDS011;64454;51.984;9.838;2023-04-15T06:10:46;22.13;;;14.85;;
75820;SDS011;64454;51.984;9.838;2023-04-15T06:13:13;22.20;;;15.32;;
75820;SDS011;64454;51.984;9.838;2023-04-15T06:15:42;21.10;;;14.60;;
75820;SDS011;64454;51.984;9.838;2023-04-15T06:18:09;21.13;;;14.55;;
75820;SDS011;64454;51.984;9.838;2023-04-15T06:20:37;20.88;;;14.38;;
75820;SDS011;64454;51.984;9.838;2023-04-15T06:23:03;22.00;;;14.45;;
75820;SDS011;64454;51.984;9.838;2023-04-15T06:25:30;20.02;;;13.35;;
75820;SDS011;64454;51.984;9.838;2023-04-15T06:27:57;20.58;;;13.82;;
75820;SDS011;64454;51.984;9.838;2023-04-15T06:30:24;19.58;;;13.63;;
75820;SDS011;64454;51.984;9.838;2023-04-15T06:32:53;17.55;;;12.88;;
75820;SDS011;64454;51.984;9.838;2023-04-15T06:35:20;18.55;;;13.05;;
75820;SDS011;64454;51.984;9.838;2023-04-15T06:37:47;18.25;;;12.30;;
75820;SDS011;64454;51.984;9.838;2023-04-15T06:40:14;15.80;;;12.13;;
75820;SDS011;64454;51.984;9.838;2023-04-15T06:42:41;16.48;;;11.02;;
75820;SDS011;64454;51.984;9.838;2023-04-15T06:45:08;16.77;;;11.23;;
75820;SDS011;64454;51.984;9.838;2023-04-15T06:47:36;13.70;;;10.77;;
75820;SDS011;64454;51.984;9.838;2023-04-15T06:50:05;14.50;;;10.17;;
75820;SDS011;64454;51.984;9.838;2023-04-15T06:52:34;13.95;;;9.70;;
75820;SDS011;64454;51.984;9.838;2023-04-15T06:55:01;13.35;;;9.43;;
75820;SDS011;64454;51.984;9.838;2023-04-15T06:57:29;14.20;;;9.95;;
75820;SDS011;64454;51.984;9.838;2023-04-15T06:59:56;12.80;;;9.23;;
75820;SDS011;64454;51.984;9.838;2023-04-15T07:02:22;11.30;;;7.78;;
75820;SDS011;64454;51.984;9.838;2023-04-15T07:04:49;10.17;;;7.57;;
75820;SDS011;64454;51.984;9.838;2023-04-15T07:07:18;11.07;;;7.90;;
75820;SDS011;64454;51.984;9.838;2023-04-15T07:09:45;9.30;;;7.40;;
75820;SDS011;64454;51.984;9.838;2023-04-15T07:12:12;10.30;;;7.60;;
75820;SDS011;64454;51.984;9.838;2023-04-15T07:14:39;8.60;;;6.57;;
75820;SDS011;64454;51.984;9.838;2023-04-15T07:17:06;9.40;;;6.97;;
75820;SDS011;64454;51.984;9.838;2023-04-15T07:19:34;8.98;;;6.88;;
75820;SDS011;64454;51.984;9.838;2023-04-15T07:22:01;9.18;;;7.10;;
75820;SDS011;64454;51.984;9.838;2023-04-15T07:24:29;9.60;;;6.38;;
75820;SDS011;64454;51.984;9.838;2023-04-15T07:26:56;8.60;;;6.30;;
75820;SDS011;64454;51.984;9.838;2023-04-15T07:29:23;9.43;;;6.40;;
75820;SDS011;64454;51.984;9.838;2023-04-15T07:31:51;8.13;;;6.10;;
75820;SDS011;64454;51.984;9.838;2023-04-15T07:34:18;8.63;;;6.22;;
75820;SDS011;64454;51.984;9.838;2023-04-15T07:36:46;8.57;;;6.03;;
75820;SDS011;64454;51.984;9.838;2023-04-15T07:39:15;8.00;;;6.60;;
75820;SDS011;64454;51.984;9.838;2023-04-15T07:41:46;8.35;;;6.60;;
75820;SDS011;64454;51.984;9.838;2023-04-15T07:44:14;8.70;;;5.93;;
75820;SDS011;64454;51.984;9.838;2023-04-15T07:46:41;7.53;;;5.82;;
75820;SDS011;64454;51.984;9.838;2023-04-15T07:49:08;7.85;;;5.78;;
75820;SDS011;64454;51.984;9.838;2023-04-15T07:51:35;9.00;;;5.88;;
75820;SDS011;64454;51.984;9.838;2023-04-15T07:54:02;8.85;;;6.10;;
75820;SDS011;64454;51.984;9.838;2023-04-15T07:56:29;7.40;;;6.10;;
75820;SDS011;64454;51.984;9.838;2023-04-15T07:58:57;8.40;;;5.97;;
75820;SDS011;64454;51.984;9.838;2023-04-15T08:01:26;8.35;;;5.97;;
75820;SDS011;64454;51.984;9.838;2023-04-15T08:03:52;6.18;;;4.80;;
75820;SDS011;64454;51.984;9.838;2023-04-15T08:06:19;7.20;;;5.90;;
75820;SDS011;64454;51.984;9.838;2023-04-15T08:08:46;6.55;;;5.05;;
75820;SDS011;64454;51.984;9.838;2023-04-15T08:11:13;5.70;;;4.72;;
75820;SDS011;64454;51.984;9.838;2023-04-15T08:13:40;4.90;;;4.40;;
75820;SDS011;64454;51.984;9.838;2023-04-15T08:16:14;6.55;;;5.10;;
75820;SDS011;64454;51.984;9.838;2023-04-15T08:18:44;7.00;;;5.20;;
75820;SDS011;64454;51.984;9.838;2023-04-15T08:21:11;6.38;;;5.10;;
75820;SDS011;64454;51.984;9.838;2023-04-15T08:23:38;6.90;;;5.15;;
75820;SDS011;64454;51.984;9.838;2023-04-15T08:26:06;4.30;;;3.70;;
75820;SDS011;64454;51.984;9.838;2023-04-15T08:28:34;4.40;;;3.67;;
75820;SDS011;64454;51.984;9.838;2023-04-15T08:31:00;4.03;;;3.23;;
75820;SDS011;64454;51.984;9.838;2023-04-15T08:33:29;3.10;;;2.80;;
75820;SDS011;64454;51.984;9.838;2023-04-15T08:35:56;3.85;;;3.38;;
75820;SDS011;64454;51.984;9.838;2023-04-15T08:38:23;4.35;;;3.28;;
75820;SDS011;64454;51.984;9.838;2023-04-15T08:40:49;3.70;;;3.00;;
75820;SDS011;64454;51.984;9.838;2023-04-15T08:43:17;4.15;;;3.40;;
75820;SDS011;64454;51.984;9.838;2023-04-15T08:45:50;4.68;;;3.10;;
75820;SDS011;64454;51.984;9.838;2023-04-15T08:48:18;4.18;;;3.00;;
75820;SDS011;64454;51.984;9.838;2023-04-15T08:50:48;3.65;;;3.13;;
75820;SDS011;64454;51.984;9.838;2023-04-15T08:53:16;3.90;;;2.80;;
75820;SDS011;64454;51.984;9.838;2023-04-15T08:55:44;4.03;;;3.38;;
75820;SDS011;64454;51.984;9.838;2023-04-15T08:58:15;3.75;;;3.10;;
75820;SDS011;64454;51.984;9.838;2023-04-15T09:00:44;5.03;;;3.30;;
75820;SDS011;64454;51.984;9.838;2023-04-15T09:03:12;4.83;;;3.10;;
75820;SDS011;64454;51.984;9.838;2023-04-15T09:05:41;3.17;;;2.88;;
75820;SDS011;64454;51.984;9.838;2023-04-15T09:08:09;3.60;;;3.20;;
75820;SDS011;64454;51.984;9.838;2023-04-15T09:10:36;3.30;;;3.00;;
75820;SDS011;64454;51.984;9.838;2023-04-15T09:13:03;3.70;;;2.92;;
75820;SDS011;64454;51.984;9.838;2023-04-15T09:15:30;4.18;;;3.50;;
75820;SDS011;64454;51.984;9.838;2023-04-15T09:17:58;3.78;;;3.22;;
75820;SDS011;64454;51.984;9.838;2023-04-15T09:20:25;3.70;;;3.30;;
75820;SDS011;64454;51.984;9.838;2023-04-15T09:22:52;3.97;;;3.30;;
75820;SDS011;64454;51.984;9.838;2023-04-15T09:25:27;3.55;;;3.00;;
75820;SDS011;64454;51.984;9.838;2023-04-15T09:27:55;5.13;;;4.20;;
75820;SDS011;64454;51.984;9.838;2023-04-15T09:30:26;12.82;;;8.73;;
75820;SDS011;64454;51.984;9.838;2023-04-15T09:32:55;19.88;;;12.00;;
75820;SDS011;64454;51.984;9.838;2023-04-15T09:35:24;8.23;;;6.10;;
75820;SDS011;64454;51.984;9.838;2023-04-15T09:37:52;4.75;;;3.70;;
75820;SDS011;64454;51.984;9.838;2023-04-15T09:40:32;4.00;;;3.25;;
75820;SDS011;64454;51.984;9.838;2023-04-15T09:43:01;4.05;;;3.42;;
75820;SDS011;64454;51.984;9.838;2023-04-15T09:45:29;3.67;;;3.30;;
75820;SDS011;64454;51.984;9.838;2023-04-15T09:47:57;4.30;;;3.50;;
75820;SDS011;64454;51.984;9.838;2023-04-15T09:50:39;4.00;;;3.60;;
75820;SDS011;64454;51.984;9.838;2023-04-15T09:53:08;5.25;;;3.83;;
75820;SDS011;64454;51.984;9.838;2023-04-15T09:55:37;5.80;;;4.50;;
75820;SDS011;64454;51.984;9.838;2023-04-15T09:58:07;7.80;;;6.60;;
75820;SDS011;64454;51.984;9.838;2023-04-15T10:00:35;20.10;;;14.65;;
75820;SDS011;64454;51.984;9.838;2023-04-15T10:03:04;5.00;;;3.70;;
75820;SDS011;64454;51.984;9.838;2023-04-15T10:05:31;5.70;;;5.20;;
75820;SDS011;64454;51.984;9.838;2023-04-15T10:07:59;4.43;;;3.50;;
75820;SDS011;64454;51.984;9.838;2023-04-15T10:10:28;4.22;;;3.40;;
75820;SDS011;64454;51.984;9.838;2023-04-15T10:12:58;3.58;;;3.03;;
75820;SDS011;64454;51.984;9.838;2023-04-15T10:15:26;3.80;;;3.00;;
75820;SDS011;64454;51.984;9.838;2023-04-15T10:17:55;4.40;;;3.20;;
75820;SDS011;64454;51.984;9.838;2023-04-15T10:20:25;3.90;;;3.20;;
75820;SDS011;64454;51.984;9.838;2023-04-15T10:22:54;5.05;;;4.05;;
75820;SDS011;64454;51.984;9.838;2023-04-15T10:25:22;3.83;;;3.42;;
75820;SDS011;64454;51.984;9.838;2023-04-15T10:27:52;4.93;;;3.20;;
75820;SDS011;64454;51.984;9.838;2023-04-15T10:30:21;4.18;;;3.53;;
75820;SDS011;64454;51.984;9.838;2023-04-15T10:32:48;3.80;;;3.40;;
75820;SDS011;64454;51.984;9.838;2023-04-15T10:35:16;4.60;;;3.58;;
75820;SDS011;64454;51.984;9.838;2023-04-15T10:37:44;4.95;;;4.45;;
75820;SDS011;64454;51.984;9.838;2023-04-15T10:40:24;5.65;;;4.15;;
75820;SDS011;64454;51.984;9.838;2023-04-15T10:42:53;5.60;;;4.72;;
75820;SDS011;64454;51.984;9.838;2023-04-15T10:45:22;6.20;;;4.22;;
75820;SDS011;64454;51.984;9.838;2023-04-15T10:47:53;5.07;;;4.32;;
75820;SDS011;64454;51.984;9.838;2023-04-15T10:50:24;6.17;;;4.40;;
75820;SDS011;64454;51.984;9.838;2023-04-15T10:52:54;6.72;;;5.13;;
75820;SDS011;64454;51.984;9.838;2023-04-15T10:55:22;7.80;;;5.10;;
75820;SDS011;64454;51.984;9.838;2023-04-15T10:57:51;6.60;;;5.07;;
75820;SDS011;64454;51.984;9.838;2023-04-15T11:00:21;6.80;;;5.25;;
75820;SDS011;64454;51.984;9.838;2023-04-15T11:02:57;8.57;;;5.50;;
75820;SDS011;64454;51.984;9.838;2023-04-15T11:05:50;9.23;;;5.43;;
75820;SDS011;64454;51.984;9.838;2023-04-15T11:08:18;7.05;;;5.25;;
75820;SDS011;64454;51.984;9.838;2023-04-15T11:10:51;7.55;;;5.70;;
75820;SDS011;64454;51.984;9.838;2023-04-15T11:13:20;8.45;;;5.50;;
75820;SDS011;64454;51.984;9.838;2023-04-15T11:15:53;7.28;;;5.47;;
75820;SDS011;64454;51.984;9.838;2023-04-15T11:18:24;8.20;;;6.28;;
75820;SDS011;64454;51.984;9.838;2023-04-15T11:20:55;9.95;;;6.70;;
75820;SDS011;64454;51.984;9.838;2023-04-15T11:23:27;8.57;;;6.32;;
75820;SDS011;64454;51.984;9.838;2023-04-15T11:25:58;8.80;;;6.50;;
75820;SDS011;64454;51.984;9.838;2023-04-15T11:28:28;9.73;;;6.88;;
75820;SDS011;64454;51.984;9.838;2023-04-15T11:30:57;9.85;;;6.22;;
75820;SDS011;64454;51.984;9.838;2023-04-15T11:33:31;7.70;;;6.10;;
75820;SDS011;64454;51.984;9.838;2023-04-15T11:35:58;7.50;;;5.80;;
75820;SDS011;64454;51.984;9.838;2023-04-15T11:38:27;9.05;;;6.28;;
75820;SDS011;64454;51.984;9.838;2023-04-15T11:40:55;9.93;;;7.30;;
75820;SDS011;64454;51.984;9.838;2023-04-15T11:43:23;9.55;;;6.60;;
75820;SDS011;64454;51.984;9.838;2023-04-15T11:45:51;9.90;;;6.50;;
75820;SDS011;64454;51.984;9.838;2023-04-15T11:48:22;10.37;;;7.13;;
75820;SDS011;64454;51.984;9.838;2023-04-15T11:50:52;12.07;;;7.10;;
75820;SDS011;64454;51.984;9.838;2023-04-15T11:53:22;11.82;;;7.45;;
75820;SDS011;64454;51.984;9.838;2023-04-15T11:55:50;10.52;;;7.70;;
75820;SDS011;64454;51.984;9.838;2023-04-15T11:58:19;10.77;;;7.93;;
75820;SDS011;64454;51.984;9.838;2023-04-15T12:00:49;11.38;;;8.32;;
75820;SDS011;64454;51.984;9.838;2023-04-15T12:03:19;14.48;;;8.70;;
75820;SDS011;64454;51.984;9.838;2023-04-15T12:06:06;10.63;;;7.60;;
75820;SDS011;64454;51.984;9.838;2023-04-15T12:08:47;11.25;;;7.90;;
75820;SDS011;64454;51.984;9.838;2023-04-15T12:11:30;16.10;;;9.50;;
75820;SDS011;64454;51.984;9.838;2023-04-15T12:14:07;14.40;;;8.98;;
75820;SDS011;64454;51.984;9.838;2023-04-15T12:16:38;14.53;;;9.10;;
75820;SDS011;64454;51.984;9.838;2023-04-15T12:19:09;12.32;;;8.88;;
75820;SDS011;64454;51.984;9.838;2023-04-15T12:21:39;13.20;;;8.25;;
75820;SDS011;64454;51.984;9.838;2023-04-15T12:24:10;14.35;;;10.30;;
75820;SDS011;64454;51.984;9.838;2023-04-15T12:26:42;15.07;;;9.85;;
75820;SDS011;64454;51.984;9.838;2023-04-15T12:29:11;17.88;;;10.40;;
75820;SDS011;64454;51.984;9.838;2023-04-15T12:31:49;16.77;;;10.57;;
75820;SDS011;64454;51.984;9.838;2023-04-15T12:34:24;16.27;;;10.57;;
75820;SDS011;64454;51.984;9.838;2023-04-15T12:36:53;16.58;;;11.13;;
75820;SDS011;64454;51.984;9.838;2023-04-15T12:39:22;14.30;;;9.75;;
75820;SDS011;64454;51.984;9.838;2023-04-15T12:41:49;15.02;;;10.88;;
75820;SDS011;64454;51.984;9.838;2023-04-15T12:44:17;17.10;;;11.50;;
75820;SDS011;64454;51.984;9.838;2023-04-15T12:46:47;22.67;;;12.05;;
75820;SDS011;64454;51.984;9.838;2023-04-15T12:49:15;20.58;;;12.55;;
75820;SDS011;64454;51.984;9.838;2023-04-15T12:51:46;21.33;;;14.30;;
75820;SDS011;64454;51.984;9.838;2023-04-15T12:54:16;20.02;;;13.80;;
75820;SDS011;64454;51.984;9.838;2023-04-15T12:56:46;23.90;;;13.98;;
75820;SDS011;64454;51.984;9.838;2023-04-15T12:59:15;20.88;;;13.27;;
75820;SDS011;64454;51.984;9.838;2023-04-15T13:01:45;22.70;;;13.68;;
75820;SDS011;64454;51.984;9.838;2023-04-15T13:04:13;22.85;;;14.27;;
75820;SDS011;64454;51.984;9.838;2023-04-15T13:06:44;23.08;;;15.05;;
75820;SDS011;64454;51.984;9.838;2023-04-15T13:09:11;26.60;;;15.50;;
75820;SDS011;64454;51.984;9.838;2023-04-15T13:11:39;24.15;;;15.80;;
75820;SDS011;64454;51.984;9.838;2023-04-15T13:14:06;27.60;;;17.05;;
75820;SDS011;64454;51.984;9.838;2023-04-15T13:16:35;24.50;;;16.20;;
75820;SDS011;64454;51.984;9.838;2023-04-15T13:19:02;24.83;;;16.15;;
75820;SDS011;64454;51.984;9.838;2023-04-15T13:21:29;25.55;;;16.02;;
75820;SDS011;64454;51.984;9.838;2023-04-15T13:24:00;24.70;;;16.40;;
75820;SDS011;64454;51.984;9.838;2023-04-15T13:26:27;23.83;;;15.87;;
75820;SDS011;64454;51.984;9.838;2023-04-15T13:28:55;30.80;;;17.90;;
75820;SDS011;64454;51.984;9.838;2023-04-15T13:31:22;25.40;;;16.58;;
75820;SDS011;64454;51.984;9.838;2023-04-15T13:33:48;22.90;;;14.90;;
75820;SDS011;64454;51.984;9.838;2023-04-15T13:36:15;21.90;;;14.30;;
75820;SDS011;64454;51.984;9.838;2023-04-15T13:38:42;23.50;;;15.52;;
75820;SDS011;64454;51.984;9.838;2023-04-15T13:41:10;25.77;;;16.02;;
75820;SDS011;64454;51.984;9.838;2023-04-15T13:43:37;27.35;;;16.08;;
75820;SDS011;64454;51.984;9.838;2023-04-15T13:46:04;25.53;;;14.73;;
75820;SDS011;64454;51.984;9.838;2023-04-15T13:48:31;27.37;;;15.13;;
75820;SDS011;64454;51.984;9.838;2023-04-15T13:50:58;24.05;;;14.80;;
75820;SDS011;64454;51.984;9.838;2023-04-15T13:53:25;22.45;;;14.48;;
75820;SDS011;64454;51.984;9.838;2023-04-15T13:55:52;24.33;;;15.13;;
75820;SDS011;64454;51.984;9.838;2023-04-15T13:58:20;22.55;;;13.15;;
75820;SDS011;64454;51.984;9.838;2023-04-15T14:00:47;25.92;;;14.70;;
75820;SDS011;64454;51.984;9.838;2023-04-15T14:03:13;22.77;;;15.02;;
75820;SDS011;64454;51.984;9.838;2023-04-15T14:05:40;24.10;;;14.40;;
75820;SDS011;64454;51.984;9.838;2023-04-15T14:08:07;24.55;;;13.93;;
75820;SDS011;64454;51.984;9.838;2023-04-15T14:10:34;25.10;;;15.77;;
75820;SDS011;64454;51.984;9.838;2023-04-15T14:13:01;29.35;;;17.90;;
75820;SDS011;64454;51.984;9.838;2023-04-15T14:15:29;27.27;;;16.65;;
75820;SDS011;64454;51.984;9.838;2023-04-15T14:17:57;30.77;;;17.98;;
75820;SDS011;64454;51.984;9.838;2023-04-15T14:20:23;30.60;;;18.85;;
75820;SDS011;64454;51.984;9.838;2023-04-15T14:22:50;32.28;;;19.75;;
75820;SDS011;64454;51.984;9.838;2023-04-15T14:25:17;33.47;;;20.38;;
75820;SDS011;64454;51.984;9.838;2023-04-15T14:27:44;29.95;;;18.90;;
75820;SDS011;64454;51.984;9.838;2023-04-15T14:30:11;32.50;;;19.80;;
75820;SDS011;64454;51.984;9.838;2023-04-15T14:32:39;33.15;;;21.17;;
75820;SDS011;64454;51.984;9.838;2023-04-15T14:35:06;34.17;;;19.67;;
75820;SDS011;64454;51.984;9.838;2023-04-15T14:37:34;35.72;;;21.23;;
75820;SDS011;64454;51.984;9.838;2023-04-15T14:40:01;36.45;;;22.10;;
75820;SDS011;64454;51.984;9.838;2023-04-15T14:42:28;37.85;;;22.40;;
75820;SDS011;64454;51.984;9.838;2023-04-15T14:44:55;35.25;;;23.05;;